Time;durP1;ratioP1;P1;durP2;ratioP2;P2;SDS_P1;SDS_P2;PMS_P1;PMS_P2;Temp;Humidity;BMP_temperature;BMP_pressure;BME280_temperature;BME280_humidity;BME280_pressure;Samples;Min_cycle;Max_cycle;Signal;HPM_P1;HPM_P2
2022/10/11 00:00:19;;;;;;;20.40;16.08;;;;;;;14.04;97.28;100921.72;4992526;28;20050;-64
2022/10/11 00:02:44;;;;;;;22.45;17.13;;;;;;;14.08;97.25;100930.34;4991066;28;20034;-64
2022/10/11 00:05:10;;;;;;;20.92;16.73;;;;;;;14.07;97.28;100928.66;4991957;28;20041;-64
2022/10/11 00:07:37;;;;;;;23.50;17.13;;;;;;;13.98;97.20;100914.19;4992361;28;20026;-64
2022/10/11 00:10:04;;;;;;;23.17;17.20;;;;;;;14.00;97.23;100927.53;4992614;28;20653;-64
2022/10/11 00:12:30;;;;;;;24.38;16.95;;;;;;;13.88;97.34;100904.38;4992323;28;20042;-65
2022/10/11 00:14:55;;;;;;;24.40;16.88;;;;;;;13.94;97.60;100922.69;4991149;28;20030;-64
2022/10/11 00:17:21;;;;;;;19.48;16.10;;;;;;;13.92;97.35;100913.88;4992169;28;20057;-64
2022/10/11 00:19:47;;;;;;;25.08;16.60;;;;;;;13.88;97.75;100917.88;4992382;28;20026;-65
2022/10/11 00:22:12;;;;;;;21.95;16.30;;;;;;;13.75;97.99;100888.50;4984976;28;20026;-64
2022/10/11 00:24:38;;;;;;;23.98;16.73;;;;;;;13.81;98.12;100905.94;4992097;28;20035;-64
2022/10/11 00:27:03;;;;;;;23.10;16.98;;;;;;;13.78;98.33;100907.09;4992132;28;20030;-65
2022/10/11 00:29:28;;;;;;;22.75;16.95;;;;;;;13.73;98.16;100898.56;4990818;28;20041;-65
2022/10/11 00:31:54;;;;;;;24.42;17.23;;;;;;;13.71;98.35;100901.41;4991962;28;20128;-64
2022/10/11 00:34:19;;;;;;;21.15;16.48;;;;;;;13.69;98.31;100899.84;4990404;28;20038;-64
2022/10/11 00:36:45;;;;;;;22.40;16.70;;;;;;;13.65;97.89;100896.56;4988403;28;20477;-65
2022/10/11 00:39:11;;;;;;;27.85;17.50;;;;;;;13.55;97.87;100889.47;4990808;28;20035;-64
2022/10/11 00:41:36;;;;;;;23.88;16.85;;;;;;;13.53;97.87;100888.75;4992273;28;20425;-65
2022/10/11 00:44:07;;;;;;;20.67;16.95;;;;;;;13.58;98.23;100895.41;4991655;28;20043;-65
2022/10/11 00:46:33;;;;;;;18.67;15.98;;;;;;;13.40;99.07;100880.06;4990370;28;20117;-64
2022/10/11 00:49:04;;;;;;;22.27;16.98;;;;;;;13.46;99.42;100896.56;4992072;28;20641;-64
2022/10/11 00:51:57;;;;;;;23.10;17.25;;;;;;;13.46;99.08;100899.25;4991608;28;20034;-64
2022/10/11 00:54:26;;;;;;;22.08;16.80;;;;;;;13.35;99.36;100876.97;4989229;28;20046;-64
2022/10/11 00:56:59;;;;;;;24.10;16.48;;;;;;;13.41;99.47;100897.94;4991705;28;20027;-64
2022/10/11 00:59:28;;;;;;;22.45;16.90;;;;;;;13.45;99.72;100902.91;4991838;28;20420;-64
2022/10/11 01:01:54;;;;;;;21.50;16.75;;;;;;;13.38;99.78;100887.44;4991379;28;20044;-64
2022/10/11 01:04:20;;;;;;;18.83;15.45;;;;;;;13.40;99.53;100889.03;4990268;28;20034;-64
2022/10/11 01:06:47;;;;;;;22.05;16.20;;;;;;;13.45;99.24;100899.38;4991118;28;20034;-64
2022/10/11 01:09:13;;;;;;;25.30;16.80;;;;;;;13.42;99.47;100886.19;4991479;28;20037;-64
2022/10/11 01:11:41;;;;;;;23.02;15.43;;;;;;;13.46;99.76;100896.56;4991162;28;20037;-64
2022/10/11 01:14:32;;;;;;;21.25;16.20;;;;;;;13.46;99.57;100890.31;4991519;28;20385;-64
2022/10/11 01:17:09;;;;;;;19.33;15.38;;;;;;;13.33;100.00;100873.53;4987040;28;20138;-64
2022/10/11 01:19:45;;;;;;;20.27;15.35;;;;;;;13.30;100.00;100861.22;4974899;28;20829;-64
2022/10/11 01:22:32;;;;;;;20.25;15.20;;;;;;;13.43;100.00;100886.06;4991294;28;20093;-64
2022/10/11 01:25:03;;;;;;;21.77;15.38;;;;;;;13.43;100.00;100890.59;4990093;28;20041;-65
2022/10/11 01:27:45;;;;;;;19.23;15.50;;;;;;;13.33;100.00;100866.31;4989946;28;20026;-64
2022/10/11 01:30:24;;;;;;;21.50;15.73;;;;;;;13.29;100.00;100862.19;4989903;28;20415;-64
2022/10/11 01:32:58;;;;;;;23.40;16.17;;;;;;;13.37;100.00;100883.91;4990640;28;20096;-64
2022/10/11 01:35:24;;;;;;;;;;;;;;;13.36;100.00;100884.91;4991434;28;20525;-65
2022/10/11 01:38:09;;;;;;;21.45;16.48;;;;;;;13.22;100.00;100861.03;4989431;28;20019;-64
2022/10/11 01:41:04;;;;;;;19.75;17.33;;;;;;;13.36;100.00;100886.75;4989330;28;20105;-64
2022/10/11 01:43:30;;;;;;;28.48;16.35;;;;;;;13.26;100.00;100867.00;4989211;28;20237;-64
2022/10/11 01:45:58;;;;;;;24.45;17.98;;;;;;;13.30;100.00;100871.13;4990099;28;20042;-64
2022/10/11 01:48:24;;;;;;;23.45;17.00;;;;;;;13.35;100.00;100875.09;4986223;28;20110;-65
2022/10/11 01:50:52;;;;;;;20.63;16.88;;;;;;;13.36;100.00;100873.28;4981641;28;20117;-64
2022/10/11 01:53:33;;;;;;;24.65;17.33;;;;;;;13.34;100.00;100864.47;4984698;28;20446;-64
2022/10/11 01:56:04;;;;;;;24.65;18.08;;;;;;;13.34;100.00;100862.63;4977820;28;20463;-64
2022/10/11 01:58:51;;;;;;;20.38;17.58;;;;;;;13.30;100.00;100858.53;4977747;28;20049;-64
2022/10/11 02:01:25;;;;;;;24.00;19.20;;;;;;;13.35;100.00;100866.19;4984857;28;20062;-64
2022/10/11 02:04:04;;;;;;;28.20;18.98;;;;;;;13.30;100.00;100865.75;4980435;28;20054;-64
2022/10/11 02:06:42;;;;;;;24.45;18.52;;;;;;;13.24;100.00;100859.06;4982927;28;20044;-64
2022/10/11 02:09:21;;;;;;;28.65;19.52;;;;;;;13.27;100.00;100869.56;4983070;28;20030;-64
2022/10/11 02:11:46;;;;;;;29.40;18.98;;;;;;;13.22;100.00;100868.28;4983997;28;20053;-75
2022/10/11 02:14:17;;;;;;;26.42;18.90;;;;;;;13.15;100.00;100851.81;4987748;28;20061;-75
2022/10/11 02:16:57;;;;;;;27.67;19.05;;;;;;;13.22;100.00;100870.97;4982687;28;20110;-75
2022/10/11 02:19:31;;;;;;;23.33;19.15;;;;;;;13.08;100.00;100855.19;4983101;28;20019;-75
2022/10/11 02:22:01;;;;;;;30.95;20.55;;;;;;;13.20;100.00;100868.44;4979523;28;20030;-75
2022/10/11 02:24:31;;;;;;;26.33;18.58;;;;;;;13.16;100.00;100866.13;4981158;28;20042;-75
2022/10/11 02:26:58;;;;;;;26.92;20.17;;;;;;;13.12;100.00;100862.84;4984181;28;20074;-75
2022/10/11 02:29:27;;;;;;;28.35;19.80;;;;;;;13.04;100.00;100859.16;4984640;28;20054;-75
2022/10/11 02:31:57;;;;;;;31.05;21.45;;;;;;;13.08;100.00;100871.34;5012190;28;20038;-75
2022/10/11 02:34:34;;;;;;;27.30;20.38;;;;;;;13.04;100.00;100867.22;5012343;28;20066;-75
2022/10/11 02:37:20;;;;;;;33.10;20.55;;;;;;;13.02;100.00;100869.19;5006463;28;20453;-75
2022/10/11 02:40:08;;;;;;;32.58;21.08;;;;;;;12.98;100.00;100876.69;4990106;28;20042;-75
2022/10/11 02:42:43;;;;;;;32.90;22.40;;;;;;;12.95;100.00;100868.00;4974575;28;20029;-75
2022/10/11 02:45:11;;;;;;;29.48;22.40;;;;;;;12.91;100.00;100862.06;4990371;28;20077;-75
2022/10/11 02:47:39;;;;;;;28.02;21.48;;;;;;;12.85;100.00;100861.75;4990631;28;20494;-75
2022/10/11 02:50:05;;;;;;;30.63;21.65;;;;;;;12.78;100.00;100850.69;4990260;28;20716;-75
2022/10/11 02:52:30;;;;;;;32.15;22.58;;;;;;;12.85;100.00;100870.69;4989957;28;20038;-75
2022/10/11 02:54:55;;;;;;;34.10;22.45;;;;;;;12.85;100.00;100872.50;4988705;28;20014;-74
2022/10/11 02:57:21;;;;;;;29.35;22.08;;;;;;;12.77;100.00;100858.88;4991541;28;20433;-75
2022/10/11 02:59:46;;;;;;;30.83;22.30;;;;;;;12.79;100.00;100865.84;4994142;28;20038;-75
2022/10/11 03:02:12;;;;;;;34.08;23.83;;;;;;;12.73;100.00;100857.44;4994275;28;20485;-75
2022/10/11 03:04:37;;;;;;;36.65;25.65;;;;;;;12.76;100.00;100871.47;4993951;28;20065;-75
2022/10/11 03:07:02;;;;;;;39.00;24.85;;;;;;;12.75;100.00;100871.63;4992747;28;20030;-75
2022/10/11 03:09:28;;;;;;;39.90;25.25;;;;;;;12.70;100.00;100868.47;4993965;28;20034;-75
2022/10/11 03:11:53;;;;;;;38.88;25.33;;;;;;;12.66;100.00;100856.28;4993870;28;20466;-75
2022/10/11 03:14:19;;;;;;;37.88;24.70;;;;;;;12.72;100.00;100877.25;4992588;28;20030;-75
2022/10/11 03:16:44;;;;;;;37.08;24.65;;;;;;;12.72;100.00;100879.97;4993972;28;20038;-75
2022/10/11 03:19:10;;;;;;;37.20;23.73;;;;;;;12.70;100.00;100881.91;4993995;28;20489;-75
2022/10/11 03:21:36;;;;;;;36.88;23.92;;;;;;;12.62;100.00;100865.59;4993942;28;20042;-75
2022/10/11 03:24:02;;;;;;;34.55;25.10;;;;;;;12.69;100.00;100877.53;4993832;28;20027;-75
2022/10/11 03:26:28;;;;;;;35.08;25.10;;;;;;;12.70;100.00;100879.22;4993294;28;20030;-75
2022/10/11 03:28:53;;;;;;;34.20;24.73;;;;;;;12.71;100.00;100879.09;4993730;28;20026;-75
2022/10/11 03:31:20;;;;;;;35.00;24.85;;;;;;;12.61;100.00;100850.47;4993705;28;20038;-75
2022/10/11 03:33:46;;;;;;;33.53;24.80;;;;;;;12.74;100.00;100878.00;4993551;28;20045;-75
2022/10/11 03:36:12;;;;;;;32.53;23.67;;;;;;;12.66;100.00;100867.91;4993806;28;20030;-75
2022/10/11 03:38:37;;;;;;;30.98;24.23;;;;;;;12.71;100.00;100871.03;4991149;28;20359;-75
2022/10/11 03:41:03;;;;;;;34.72;24.73;;;;;;;12.71;100.00;100875.56;4986665;28;20023;-75
2022/10/11 03:43:28;;;;;;;38.30;25.00;;;;;;;12.79;100.00;100886.50;4985041;28;20050;-75
2022/10/11 03:45:54;;;;;;;35.97;25.33;;;;;;;12.81;100.00;100882.72;4981667;28;20481;-75
2022/10/11 03:48:19;;;;;;;31.48;24.65;;;;;;;12.72;100.00;100861.13;4983962;28;20032;-75
2022/10/11 03:50:45;;;;;;;33.30;24.40;;;;;;;12.82;100.00;100886.22;4980554;28;20035;-75
2022/10/11 03:53:10;;;;;;;33.03;24.90;;;;;;;12.80;100.00;100888.22;4989057;28;20409;-75
2022/10/11 03:55:40;;;;;;;29.33;23.50;;;;;;;12.81;100.00;100884.53;4983524;28;20031;-75
2022/10/11 03:58:06;;;;;;;32.83;23.55;;;;;;;12.86;100.00;100890.34;4975649;28;20049;-74
2022/10/11 04:00:32;;;;;;;33.35;24.05;;;;;;;12.87;100.00;100897.47;4998274;28;20678;-74
2022/10/11 04:02:58;;;;;;;32.03;24.23;;;;;;;12.79;100.00;100876.59;4991506;28;20035;-74
2022/10/11 04:05:24;;;;;;;32.72;23.60;;;;;;;12.87;100.00;100894.78;4992764;28;20038;-74
2022/10/11 04:07:49;;;;;;;34.03;23.77;;;;;;;12.82;100.00;100886.22;4991935;28;20026;-74
2022/10/11 04:10:15;;;;;;;36.15;24.52;;;;;;;12.86;100.00;100890.34;4992111;28;20041;-74
2022/10/11 04:12:41;;;;;;;31.50;22.10;;;;;;;12.87;100.00;100890.22;4991538;28;20127;-74
2022/10/11 04:15:07;;;;;;;29.88;24.58;;;;;;;12.88;100.00;100893.78;4996097;28;20024;-74
2022/10/11 04:17:33;;;;;;;30.48;22.75;;;;;;;12.86;100.00;100888.53;4998697;28;20477;-74
2022/10/11 04:19:58;;;;;;;32.10;23.85;;;;;;;12.80;100.00;100875.59;4998075;28;20038;-74
2022/10/11 04:22:23;;;;;;;34.60;23.52;;;;;;;12.77;100.00;100870.47;5007692;28;20026;-74
2022/10/11 04:24:49;;;;;;;36.78;23.55;;;;;;;12.91;100.00;100896.19;4991473;28;20026;-74
2022/10/11 04:27:14;;;;;;;38.00;23.95;;;;;;;12.90;100.00;100897.19;4998210;28;20052;-74
2022/10/11 04:29:40;;;;;;;30.85;23.10;;;;;;;12.82;100.00;100880.84;5002016;28;20046;-73
2022/10/11 04:32:05;;;;;;;31.95;23.13;;;;;;;12.85;100.00;100888.66;4996679;28;20030;-74
2022/10/11 04:34:31;;;;;;;30.60;22.23;;;;;;;12.89;100.00;100895.47;4995365;28;20045;-74
2022/10/11 04:36:56;;;;;;;28.67;21.92;;;;;;;12.81;100.00;100874.63;5000354;28;20026;-74
2022/10/11 04:39:22;;;;;;;29.00;23.27;;;;;;;12.86;100.00;100895.75;4997337;28;20093;-73
2022/10/11 04:41:47;;;;;;;31.13;22.50;;;;;;;12.84;100.00;100905.81;4994647;28;20136;-74
2022/10/11 04:44:13;;;;;;;30.58;22.77;;;;;;;12.85;100.00;100902.97;4997541;28;20097;-74
2022/10/11 04:46:38;;;;;;;28.77;22.77;;;;;;;12.85;100.00;100899.44;4998793;28;20030;-74
2022/10/11 04:49:04;;;;;;;32.53;23.33;;;;;;;12.83;100.00;100896.03;5006648;28;20041;-74
2022/10/11 04:51:29;;;;;;;27.77;22.13;;;;;;;12.73;100.00;100879.81;4996798;28;20033;-74
2022/10/11 04:53:55;;;;;;;31.67;21.63;;;;;;;12.83;100.00;100893.34;4996673;28;20034;-74
2022/10/11 04:56:20;;;;;;;30.30;21.75;;;;;;;12.81;100.00;100888.09;5005526;28;20029;-74
2022/10/11 04:58:52;;;;;;;30.48;23.67;;;;;;;12.82;100.00;100897.88;4995004;28;20727;-74
2022/10/11 05:01:18;;;;;;;33.22;23.52;;;;;;;12.75;100.00;100894.00;5003450;28;20034;-74
2022/10/11 05:03:43;;;;;;;34.47;23.63;;;;;;;12.72;100.00;100890.72;5002899;28;20091;-74
2022/10/11 05:06:09;;;;;;;33.17;23.15;;;;;;;12.82;100.00;100907.78;5008294;28;20056;-74
2022/10/11 05:08:35;;;;;;;30.88;23.38;;;;;;;12.84;100.00;100913.88;4994553;28;20042;-74
2022/10/11 05:11:03;;;;;;;33.90;23.05;;;;;;;12.85;100.00;100908.38;5007506;28;20083;-74
2022/10/11 05:13:29;;;;;;;29.67;22.65;;;;;;;12.80;100.00;100902.53;4999294;28;20346;-74
2022/10/11 05:15:55;;;;;;;37.25;25.13;;;;;;;12.87;100.00;100910.94;5000395;28;20116;-74
2022/10/11 05:18:21;;;;;;;34.65;24.85;;;;;;;12.89;100.00;100911.63;4990503;28;20518;-74
2022/10/11 05:20:47;;;;;;;37.67;25.20;;;;;;;12.90;100.00;100911.50;4992162;28;20096;-74
2022/10/11 05:23:13;;;;;;;37.17;24.02;;;;;;;12.91;100.00;100912.34;5004344;28;20420;-74
2022/10/11 05:25:39;;;;;;;35.40;24.70;;;;;;;12.93;100.00;100930.06;4993110;28;20096;-74
2022/10/11 05:28:05;;;;;;;33.75;25.48;;;;;;;12.93;100.00;100919.31;5002389;28;20226;-74
2022/10/11 05:30:30;;;;;;;39.25;26.55;;;;;;;12.91;100.00;100924.00;5004091;28;20034;-74
2022/10/11 05:32:56;;;;;;;50.92;28.85;;;;;;;12.80;100.00;100907.06;5001539;28;20038;-63
2022/10/11 05:35:21;;;;;;;41.10;29.27;;;;;;;12.93;100.00;100931.94;4984964;28;20089;-64
2022/10/11 05:37:47;;;;;;;40.95;30.58;;;;;;;12.88;100.00;100920.69;4994577;28;20030;-64
2022/10/11 05:40:12;;;;;;;52.63;31.95;;;;;;;12.94;100.00;100929.09;4998687;28;20053;-64
2022/10/11 05:42:38;;;;;;;49.35;32.70;;;;;;;12.96;100.00;100939.75;4999272;28;20028;-74
2022/10/11 05:45:05;;;;;;;56.78;32.20;;;;;;;12.84;100.00;100908.50;4997671;28;20042;-74
2022/10/11 05:47:31;;;;;;;48.92;32.42;;;;;;;12.91;100.00;100915.03;5001219;28;20410;-74
2022/10/11 05:49:57;;;;;;;48.58;30.13;;;;;;;12.98;100.00;100921.59;4987583;28;20101;-75
2022/10/11 05:52:22;;;;;;;40.70;28.55;;;;;;;13.08;100.00;100930.59;4988768;28;20030;-74
2022/10/11 05:54:48;;;;;;;38.40;27.35;;;;;;;13.12;100.00;100940.09;4986718;28;20041;-74
2022/10/11 05:57:14;;;;;;;41.92;28.50;;;;;;;13.04;100.00;100916.56;4999216;28;20342;-75
2022/10/11 05:59:39;;;;;;;41.65;27.58;;;;;;;13.18;100.00;100944.94;4991268;28;20525;-75
2022/10/11 06:02:05;;;;;;;47.70;27.95;;;;;;;13.15;100.00;100929.06;4997238;28;20108;-75
2022/10/11 06:04:34;;;;;;;38.58;26.42;;;;;;;13.25;100.00;100946.97;5001877;28;20034;-75
2022/10/11 06:06:59;;;;;;;35.35;25.65;;;;;;;13.29;100.00;100936.78;4992449;28;20034;-75
2022/10/11 06:09:25;;;;;;;48.72;27.05;;;;;;;13.32;100.00;100944.59;5006884;28;20037;-75
2022/10/11 06:11:50;;;;;;;40.70;25.45;;;;;;;13.34;100.00;100951.53;5000182;28;20399;-75
2022/10/11 06:14:16;;;;;;;41.20;26.35;;;;;;;13.19;100.00;100925.13;5002442;28;20022;-75
2022/10/11 06:16:41;;;;;;;37.85;25.45;;;;;;;13.42;100.00;100954.38;4996604;28;20038;-75
2022/10/11 06:19:07;;;;;;;39.92;26.52;;;;;;;13.45;100.00;100953.28;4998907;28;20022;-75
2022/10/11 06:21:32;;;;;;;37.05;23.75;;;;;;;13.50;100.00;100957.25;4997822;28;20661;-75
2022/10/11 06:24:00;;;;;;;35.28;24.20;;;;;;;13.52;100.00;100960.66;4998762;28;20018;-74
2022/10/11 06:26:26;;;;;;;32.50;23.73;;;;;;;13.56;100.00;100954.03;4990376;28;20034;-75
2022/10/11 06:28:51;;;;;;;32.80;22.95;;;;;;;13.58;100.00;100962.81;4999523;28;20030;-75
2022/10/11 06:31:17;;;;;;;41.58;24.23;;;;;;;13.50;100.00;100932.16;5004223;28;20569;-74
2022/10/11 06:33:42;;;;;;;34.30;23.60;;;;;;;13.64;100.00;100959.56;5005946;28;20034;-75
2022/10/11 06:36:13;;;;;;;37.45;24.27;;;;;;;13.74;100.00;100967.69;4989035;28;20022;-75
2022/10/11 06:38:38;;;;;;;31.50;23.58;;;;;;;13.75;100.00;100961.28;4998063;28;20105;-75
2022/10/11 06:41:25;;;;;;;34.38;23.40;;;;;;;13.77;100.00;100960.16;4997171;28;20101;-75
2022/10/11 06:43:50;;;;;;;35.65;24.02;;;;;;;13.76;100.00;100952.19;4989180;28;20130;-75
2022/10/11 06:46:18;;;;;;;33.22;23.20;;;;;;;13.93;100.00;100973.09;4990497;28;20117;-75
2022/10/11 06:48:45;;;;;;;35.88;22.80;;;;;;;13.97;100.00;100973.66;4998549;28;20030;-75
2022/10/11 06:51:12;;;;;;;30.33;22.23;;;;;;;14.05;100.00;100977.38;4998038;28;20120;-74
2022/10/11 06:53:38;;;;;;;38.33;23.98;;;;;;;14.11;100.00;100978.63;5005195;28;20026;-74
2022/10/11 06:56:09;;;;;;;43.85;24.65;;;;;;;14.19;100.00;100984.19;4993538;28;20053;-75
2022/10/11 06:58:36;;;;;;;28.45;22.92;;;;;;;14.32;100.00;100984.81;5002421;28;20384;-75
2022/10/11 07:01:03;;;;;;;34.08;23.77;;;;;;;14.29;100.00;100967.06;4988708;28;20038;-75
2022/10/11 07:03:29;;;;;;;38.50;23.20;;;;;;;14.46;100.00;100987.91;4985084;28;20047;-74
2022/10/11 07:06:01;;;;;;;54.42;24.80;;;;;;;14.57;100.00;100987.75;5000028;28;20101;-74
2022/10/11 07:08:27;;;;;;;62.40;23.23;;;;;;;14.57;100.00;100979.66;4978714;28;20038;-75
2022/10/11 07:10:57;;;;;;;47.47;22.70;;;;;;;14.60;100.00;100971.28;4995478;28;20042;-75
2022/10/11 07:13:23;;;;;;;43.63;22.00;;;;;;;14.81;100.00;101000.81;4985173;28;20736;-75
2022/10/11 07:15:48;;;;;;;36.50;22.38;;;;;;;14.92;100.00;100998.78;4993510;28;20034;-75
2022/10/11 07:18:14;;;;;;;35.28;21.75;;;;;;;14.97;100.00;100983.00;4984955;28;20037;-75
2022/10/11 07:20:39;;;;;;;31.42;21.63;;;;;;;15.11;100.00;100987.06;4991348;28;20045;-74
2022/10/11 07:23:05;;;;;;;34.75;21.88;;;;;;;15.33;99.57;100992.97;4983637;28;20030;-74
2022/10/11 07:25:30;;;;;;;33.45;22.08;;;;;;;15.45;98.46;100972.88;4999866;28;20040;-74
2022/10/11 07:27:55;;;;;;;36.08;21.35;;;;;;;16.00;95.45;100989.94;4991354;28;20027;-74
2022/10/11 07:30:21;;;;;;;34.53;19.08;;;;;;;16.46;92.10;100978.03;5001327;28;20022;-74
2022/10/11 07:32:46;;;;;;;31.05;19.15;;;;;;;16.97;86.85;100980.81;4992574;28;20048;-74
2022/10/11 07:35:12;;;;;;;28.20;18.70;;;;;;;17.48;82.20;100994.34;4989377;28;20057;-74
2022/10/11 07:37:37;;;;;;;28.50;18.77;;;;;;;17.88;79.62;100986.34;4994051;28;20073;-74
2022/10/11 07:40:05;;;;;;;31.25;18.58;;;;;;;18.20;77.04;100985.56;5004362;28;20030;-74
2022/10/11 07:42:32;;;;;;;23.92;18.13;;;;;;;18.35;75.73;100976.63;4988843;28;20122;-75
2022/10/11 07:44:57;;;;;;;28.05;18.10;;;;;;;18.59;74.57;100984.81;5002371;28;20078;-74
2022/10/11 07:47:55;;;;;;;27.08;18.67;;;;;;;18.88;71.89;100976.97;4993910;28;20065;-75
2022/10/11 07:50:20;;;;;;;28.92;19.58;;;;;;;18.86;71.01;100968.13;4996975;28;20489;-74
2022/10/11 07:52:45;;;;;;;31.25;20.58;;;;;;;18.95;70.51;100988.84;5003363;28;20026;-74
2022/10/11 07:55:11;;;;;;;29.48;19.20;;;;;;;18.95;69.78;100990.72;5005137;28;20022;-74
2022/10/11 07:57:36;;;;;;;27.42;18.38;;;;;;;19.00;68.88;100993.78;4996556;28;20462;-74
2022/10/11 08:00:02;;;;;;;31.80;18.60;;;;;;;19.16;67.58;100991.03;4993118;28;20491;-64
2022/10/11 08:02:28;;;;;;;26.33;16.10;;;;;;;19.04;66.17;100995.97;4992228;28;20109;-65
2022/10/11 08:04:53;;;;;;;24.52;15.60;;;;;;;18.96;68.01;100982.38;4992489;28;20110;-65
2022/10/11 08:07:19;;;;;;;29.48;18.33;;;;;;;18.88;69.20;100987.00;4993088;28;20654;-65
2022/10/11 08:09:44;;;;;;;32.00;16.13;;;;;;;18.75;67.64;100986.66;4992575;28;20030;-65
2022/10/11 08:12:09;;;;;;;18.40;13.57;;;;;;;18.64;66.28;100987.84;4991446;28;20517;-64
2022/10/11 08:14:35;;;;;;;23.50;15.27;;;;;;;18.63;65.20;100994.31;4992530;28;20026;-65
2022/10/11 08:17:01;;;;;;;26.05;15.68;;;;;;;18.58;66.67;100999.41;4992667;28;20054;-64
2022/10/11 08:19:27;;;;;;;22.23;14.90;;;;;;;18.61;67.04;100993.66;4992546;28;20500;-65
2022/10/11 08:21:52;;;;;;;23.80;14.25;;;;;;;18.64;66.02;100989.72;4992248;28;20033;-65
2022/10/11 08:24:19;;;;;;;22.25;15.27;;;;;;;18.76;65.88;101001.97;4992322;28;20069;-65
2022/10/11 08:26:46;;;;;;;22.48;14.25;;;;;;;18.72;65.88;100996.00;4992202;28;20038;-64
2022/10/11 08:29:12;;;;;;;19.02;12.20;;;;;;;18.79;66.24;101002.47;4991305;28;20038;-64
2022/10/11 08:31:37;;;;;;;21.42;13.10;;;;;;;18.73;65.35;100992.25;4992112;28;20061;-65
2022/10/11 08:34:03;;;;;;;15.55;11.85;;;;;;;18.85;64.63;101007.22;4992285;28;20434;-65
2022/10/11 08:36:28;;;;;;;19.95;13.50;;;;;;;18.86;65.43;101006.19;4990815;28;20089;-65
2022/10/11 08:38:53;;;;;;;22.52;12.45;;;;;;;18.89;65.46;101005.84;4991962;28;20057;-65
2022/10/11 08:41:26;;;;;;;17.15;12.90;;;;;;;18.86;64.76;100995.31;4991026;28;20030;-64
2022/10/11 08:44:13;;;;;;;17.30;12.48;;;;;;;18.87;64.64;100986.16;4991602;28;20402;-64
2022/10/11 08:46:41;;;;;;;17.55;11.63;;;;;;;19.00;65.06;100991.91;4991966;28;20510;-64
2022/10/11 08:49:09;;;;;;;16.98;11.30;;;;;;;19.09;64.47;100999.00;4990734;28;20026;-64
2022/10/11 08:51:46;;;;;;;17.33;11.85;;;;;;;19.17;62.97;101003.59;4990128;28;20037;-64
2022/10/11 08:54:24;;;;;;;19.35;12.63;;;;;;;19.23;62.80;100998.31;4992634;28;20026;-65
2022/10/11 08:56:50;;;;;;;20.27;11.23;;;;;;;19.30;62.03;100993.91;4990218;28;20040;-65
2022/10/11 08:59:30;;;;;;;18.25;11.57;;;;;;;20.10;59.67;100998.16;4991887;28;20105;-64
2022/10/11 09:02:03;;;;;;;20.23;12.00;;;;;;;21.66;54.31;100992.66;4991416;28;20030;-64
2022/10/11 09:04:31;;;;;;;15.57;9.77;;;;;;;21.76;53.54;100974.13;4990379;28;20541;-64
2022/10/11 09:07:14;;;;;;;15.57;11.00;;;;;;;22.74;51.30;100988.91;4991284;28;20030;-64
2022/10/11 09:09:51;;;;;;;14.40;10.20;;;;;;;23.75;47.88;100992.81;4990059;28;20038;-65
2022/10/11 09:13:01;;;;;;;11.30;9.32;;;;;;;23.84;47.04;100994.34;4991174;28;20462;-64
2022/10/11 09:15:47;;;;;;;13.95;9.23;;;;;;;23.43;47.70;100993.47;4991297;28;20114;-64
2022/10/11 09:18:36;;;;;;;13.52;9.05;;;;;;;22.90;49.03;100994.09;4991437;28;20026;-64
2022/10/11 09:21:23;;;;;;;13.90;8.75;;;;;;;22.50;49.17;100988.47;4991194;28;20030;-65
2022/10/11 09:24:12;;;;;;;14.68;8.18;;;;;;;22.01;49.50;100994.63;4991261;28;20035;-64
2022/10/11 09:27:00;;;;;;;13.85;7.63;;;;;;;21.76;50.45;101011.50;4990855;28;20052;-64
2022/10/11 09:29:43;;;;;;;11.70;7.72;;;;;;;21.55;51.19;101000.50;4991201;28;20136;-64
2022/10/11 09:32:15;;;;;;;10.60;7.57;;;;;;;21.24;51.06;100989.75;4990983;28;20026;-65
2022/10/11 09:34:40;;;;;;;15.35;7.72;;;;;;;21.11;51.16;101005.91;4989301;28;20093;-64
2022/10/11 09:37:21;;;;;;;10.77;7.47;;;;;;;20.93;51.03;101001.81;4991016;28;20027;-64
2022/10/11 09:40:09;;;;;;;9.73;7.57;;;;;;;20.77;51.41;100999.22;4991154;28;20065;-64
2022/10/11 09:42:35;;;;;;;14.02;7.55;;;;;;;20.66;52.31;100996.94;4996555;28;20057;-64
2022/10/11 09:45:03;;;;;;;9.20;6.88;;;;;;;20.69;51.76;101000.13;4989259;28;20059;-65
2022/10/11 09:47:31;;;;;;;13.40;7.57;;;;;;;20.77;52.20;101001.94;4990780;28;20470;-65
2022/10/11 09:50:02;;;;;;;10.30;6.53;;;;;;;20.83;51.59;100993.03;4989213;28;20030;-64
2022/10/11 09:52:28;;;;;;;14.23;7.82;;;;;;;20.88;51.77;100996.03;4990751;28;20552;-65
2022/10/11 09:54:56;;;;;;;10.82;6.75;;;;;;;20.95;51.45;100997.88;4990466;28;20015;-64
2022/10/11 09:57:23;;;;;;;10.80;6.50;;;;;;;20.97;51.39;101005.91;4989354;28;20046;-64
2022/10/11 10:00:07;;;;;;;11.60;7.50;;;;;;;21.01;51.33;101008.06;4989137;28;20029;-64
2022/10/11 10:03:00;;;;;;;16.83;7.80;;;;;;;20.97;50.33;100997.72;4990582;28;20638;-64
2022/10/11 10:05:30;;;;;;;12.68;6.90;;;;;;;21.00;50.04;101000.94;4988187;28;20062;-64
2022/10/11 10:08:08;;;;;;;11.93;6.88;;;;;;;21.09;50.10;101004.41;4990209;28;20458;-64
2022/10/11 10:10:55;;;;;;;11.32;7.40;;;;;;;21.09;50.06;100990.78;4989068;28;20030;-64
2022/10/11 10:13:24;;;;;;;11.25;6.50;;;;;;;21.03;49.90;100984.19;4990228;28;20542;-64
2022/10/11 10:15:53;;;;;;;11.15;6.88;;;;;;;21.04;50.76;100994.06;4990142;28;20026;-64
2022/10/11 10:18:42;;;;;;;12.13;7.40;;;;;;;21.09;50.83;100996.22;4990306;28;20717;-64
2022/10/11 10:21:14;;;;;;;12.85;8.27;;;;;;;21.10;50.24;100993.31;4990111;28;20072;-64
2022/10/11 10:23:41;;;;;;;13.13;7.55;;;;;;;21.05;50.33;100984.00;4989877;28;20650;-65
2022/10/11 10:26:21;;;;;;;13.52;7.43;;;;;;;21.04;50.35;100988.59;4990162;28;20019;-65
2022/10/11 10:29:09;;;;;;;10.77;7.07;;;;;;;20.98;50.88;100993.94;4990055;28;20026;-65
2022/10/11 10:31:47;;;;;;;13.52;7.63;;;;;;;20.94;50.43;100993.47;4996799;28;20046;-64
2022/10/11 10:34:22;;;;;;;15.20;6.85;;;;;;;20.93;51.01;100996.34;4990084;28;20038;-64
2022/10/11 10:37:05;;;;;;;10.93;6.50;;;;;;;20.92;50.51;101000.13;4989901;28;20022;-64
2022/10/11 10:39:30;;;;;;;8.45;6.32;;;;;;;20.90;50.39;101002.19;4990141;28;20030;-64
2022/10/11 10:41:56;;;;;;;9.05;6.15;;;;;;;20.87;49.95;100991.63;4989965;28;20573;-64
2022/10/11 10:44:22;;;;;;;15.60;5.82;;;;;;;20.74;50.11;100981.38;4989914;28;20429;-64
2022/10/11 10:47:03;;;;;;;14.52;6.65;;;;;;;20.80;50.62;101005.16;4989917;28;20026;-64
2022/10/11 10:49:44;;;;;;;9.45;5.82;;;;;;;20.80;50.60;101002.41;4990044;28;20120;-64
2022/10/11 10:52:31;;;;;;;10.55;7.05;;;;;;;20.74;50.56;100989.53;4989976;28;20034;-64
2022/10/11 10:55:14;;;;;;;13.50;6.68;;;;;;;20.69;51.25;100988.38;4989775;28;20098;-65
2022/10/11 10:58:10;;;;;;;9.65;5.53;;;;;;;20.75;51.13;100984.91;4989859;28;20038;-64
2022/10/11 11:00:46;;;;;;;10.02;6.43;;;;;;;20.75;51.35;100980.31;4989837;28;20030;-64
2022/10/11 11:03:22;;;;;;;14.10;6.78;;;;;;;20.82;50.51;100974.97;4989930;28;20034;-64
2022/10/11 11:06:07;;;;;;;8.80;5.68;;;;;;;20.96;50.71;100990.56;4990011;28;20038;-64
2022/10/11 11:09:11;;;;;;;8.23;5.80;;;;;;;21.09;49.71;100990.78;4989880;28;20577;-65
2022/10/11 11:11:45;;;;;;;7.10;6.00;;;;;;;21.09;49.60;100985.31;4994183;28;20085;-64
2022/10/11 11:14:40;;;;;;;8.07;6.50;;;;;;;21.09;49.88;100988.88;4989807;28;20117;-64
2022/10/11 11:17:05;;;;;;;9.73;6.00;;;;;;;21.05;50.12;100984.84;4977193;28;20130;-65
2022/10/11 11:19:45;;;;;;;11.40;6.30;;;;;;;21.05;50.74;100978.56;4993124;28;20494;-64